Aguilares, Texas
Current Conditions -  °F | °C
As of 2:55 AM on Sunday 26 Oct 2014 (Local Time) from KHBV Reporting Station
Clear Clear  
Wind Chill: 16°   Ceiling: Unl
Heat Index: 16°   Visibility: 10mi
Dew Point: 15°   Wind: 6mph
Humidity: 93%   Direction: 190°S
Pressure: 30.08"   Gusts: NA
Location:  27.4459°N, 99.0184°W
Report Text: KHBV 260755Z AUTO 19005KT 10SM CLR 16/15 A3008 RMK AO2 T01560145
Loading
Personal Weather Stations






























Interactive Weather Map
Tropical Storm Tracking
New forecast layout! Learn more

10-Day Weather Forecast

Advertisements
Track Severe Weather on mobile